»·PEaware :: ASA1013 KGEG-KSEA

ASA1013 :: KGEG-KSEA

FLIGHT INFORMATION

Flight Status: Arrived
Operator:
Alaska Airlines
More flights by this operator :: More flights under this callsign
Pilot: Joe C. (19058)
Aircraft: BOEING 737-800
(B738)
More flights by this aircraft type
Origin: KGEG Spokane Intl
United States
Destination: KSEA Seattle-Tacoma Intl
United States
More flights between these airports :: More routes between these airports
Route: +GEG3 TEMPL GLASR1
File this flight plan on PilotEdge
Remarks:
Altitude:
(Current/Filed)
30,000ft
Speed:
(Current/Filed)
453kts
Departed: 10-Oct-18 05:17 PM
Arrived: 10-Oct-18 06:01 PM
Distance/Time
Traveled:
194nm/0:43
Distance/Time
To Go:
Arrived

Flight Plot

Page will automatically refresh every two minutes.

Flight plan parsing failed; only flown route is shown


Map Options




Map Legend


Flown Route
Filed Route
Departure Airport
Arrival Airport
Navaid (VOR, NDB)
Fix

Horizontal Profiles

Position Reports

Time Latitude Longitude Heading Altitude Ground
Speed
10-Oct-18 16:55 47.623359 -117.539251 0 2365ft 0kts
10-Oct-18 16:56 47.623359 -117.539251 0 2365ft 0kts
10-Oct-18 16:57 47.623359 -117.539251 0 2365ft 0kts
10-Oct-18 16:58 47.623359 -117.539251 0 2365ft 0kts
10-Oct-18 16:59 47.623359 -117.539251 0 2365ft 0kts
10-Oct-18 17:00 47.623359 -117.539251 0 2365ft 0kts
10-Oct-18 17:01 47.623359 -117.539251 0 2365ft 0kts
10-Oct-18 17:02 47.623359 -117.539251 0 2365ft 0kts
10-Oct-18 17:03 47.623359 -117.539251 0 2365ft 0kts
10-Oct-18 17:04 47.623359 -117.539251 0 2365ft 0kts
10-Oct-18 17:05 47.623359 -117.539251 0 2365ft 0kts
10-Oct-18 17:06 47.623359 -117.539251 0 2365ft 0kts
10-Oct-18 17:07 47.623359 -117.539251 0 2365ft 0kts
10-Oct-18 17:08 47.623359 -117.539251 0 2365ft 0kts
10-Oct-18 17:09 47.623359 -117.539251 0 2365ft 0kts
10-Oct-18 17:10 47.623359 -117.539251 0 2365ft 0kts
10-Oct-18 17:11 47.623285 -117.539252 0 2365ft 2kts
10-Oct-18 17:12 47.622759 -117.539513 69 2366ft 2kts
10-Oct-18 17:13 47.622742 -117.539747 90 2366ft 0kts
10-Oct-18 17:14 47.622738 -117.539052 91 2365ft 10kts
10-Oct-18 17:15 47.622598 -117.538157 121 2363ft 0kts
10-Oct-18 17:16 47.624499 -117.532439 45 2357ft 35kts
10-Oct-18 17:17 47.632291 -117.520583 66 2330ft 21kts
10-Oct-18 17:18 47.631942 -117.519552 133 2328ft 0kts
10-Oct-18 17:19 47.625080 -117.527447 224 2353ft 130kts
10-Oct-18 17:20 47.586828 -117.579169 218 4562ft 225kts
10-Oct-18 17:21 47.529300 -117.648266 218 7375ft 287kts
10-Oct-18 17:22 47.478346 -117.738610 262 10689ft 308kts
10-Oct-18 17:23 47.492243 -117.866864 285 13836ft 328kts
10-Oct-18 17:24 47.512868 -118.000833 286 16989ft 342kts
10-Oct-18 17:25 47.530558 -118.116570 286 19364ft 354kts
10-Oct-18 17:26 47.556200 -118.285772 287 22346ft 369kts
10-Oct-18 17:27 47.578762 -118.436108 287 24580ft 381kts
10-Oct-18 17:28 47.598008 -118.565467 287 26269ft 391kts
10-Oct-18 17:29 47.621040 -118.721773 287 28021ft 401kts
10-Oct-18 17:30 47.648672 -118.911910 288 30041ft 407kts
10-Oct-18 17:31 47.669216 -119.054060 288 30071ft 436kts
10-Oct-18 17:32 47.694724 -119.233101 288 30054ft 446kts
10-Oct-18 17:33 47.719928 -119.412661 288 30051ft 446kts
10-Oct-18 17:34 47.739759 -119.594520 283 30051ft 449kts
10-Oct-18 17:35 47.756332 -119.809048 282 30052ft 450kts
10-Oct-18 17:36 47.767995 -119.962459 282 30058ft 450kts
10-Oct-18 17:37 47.781828 -120.147418 282 30060ft 450kts
10-Oct-18 17:38 47.795327 -120.331523 282 30059ft 450kts
10-Oct-18 17:39 47.807234 -120.497158 282 30059ft 450kts
10-Oct-18 17:40 47.820175 -120.680904 281 30059ft 450kts
10-Oct-18 17:41 47.834466 -120.891704 282 28673ft 416kts
10-Oct-18 17:42 47.843813 -121.031827 281 26622ft 404kts
10-Oct-18 17:43 47.854716 -121.197297 280 24260ft 406kts
10-Oct-18 17:44 47.865283 -121.361852 280 21943ft 393kts
10-Oct-18 17:45 47.875217 -121.520091 279 19760ft 379kts
10-Oct-18 17:46 47.880977 -121.671808 260 17628ft 373kts
10-Oct-18 17:47 47.821324 -121.792640 222 15444ft 368kts
10-Oct-18 17:48 47.748987 -121.890473 222 13511ft 338kts
10-Oct-18 17:49 47.669544 -121.997422 222 11213ft 328kts
10-Oct-18 17:50 47.602670 -122.087075 222 9223ft 323kts
10-Oct-18 17:51 47.543031 -122.143825 186 7996ft 310kts
10-Oct-18 17:52 47.441413 -122.141838 178 5982ft 305kts
10-Oct-18 17:53 47.373385 -122.138837 178 5973ft 279kts
10-Oct-18 17:54 47.295631 -122.135383 178 5001ft 272kts
10-Oct-18 17:55 47.224364 -122.141604 209 4572ft 256kts
10-Oct-18 17:56 47.204036 -122.219342 275 3984ft 213kts
10-Oct-18 17:57 47.215990 -122.302126 317 3997ft 209kts
10-Oct-18 17:58 47.268690 -122.313354 2 3687ft 175kts
10-Oct-18 17:59 47.311854 -122.312206 0 2829ft 136kts
10-Oct-18 18:00 47.350974 -122.311834 359 2090ft 141kts
10-Oct-18 18:01 47.389886 -122.311545 359 1329ft 139kts
10-Oct-18 18:02 47.428557 -122.311536 358 588ft 137kts
10-Oct-18 18:03 47.451373 -122.309509 29 413ft 10kts
10-Oct-18 18:04 47.452362 -122.307065 91 420ft 2kts
10-Oct-18 18:05 47.448041 -122.306274 180 401ft 32kts
10-Oct-18 18:06 47.443431 -122.305097 99 388ft 11kts

Navigation Log

Ident Type
Flight plan parsing failed, navigation log unavailable